sensor_id;sensor_type;location;lat;lon;timestamp;P1;P2;P0
45990;PMS5003;31721;41.740;-88.000;2022-09-09T00:00:53;8;5;
45990;PMS5003;31721;41.740;-88.000;2022-09-09T00:03:27;5;5;
45990;PMS5003;31721;41.740;-88.000;2022-09-09T00:06:01;6;5;
45990;PMS5003;31721;41.740;-88.000;2022-09-09T00:08:37;4;4;
45990;PMS5003;31721;41.740;-88.000;2022-09-09T00:11:13;7;6;
45990;PMS5003;31721;41.740;-88.000;2022-09-09T00:13:50;4;4;
45990;PMS5003;31721;41.740;-88.000;2022-09-09T00:16:21;6;5;
45990;PMS5003;31721;41.740;-88.000;2022-09-09T00:18:54;8;6;
45990;PMS5003;31721;41.740;-88.000;2022-09-09T00:21:30;5;5;
45990;PMS5003;31721;41.740;-88.000;2022-09-09T00:24:01;6;6;
45990;PMS5003;31721;41.740;-88.000;2022-09-09T00:26:38;7;6;
45990;PMS5003;31721;41.740;-88.000;2022-09-09T00:29:12;6;5;
45990;PMS5003;31721;41.740;-88.000;2022-09-09T00:31:48;5;5;
45990;PMS5003;31721;41.740;-88.000;2022-09-09T00:34:18;12;12;
45990;PMS5003;31721;41.740;-88.000;2022-09-09T00:36:50;5;4;
45990;PMS5003;31721;41.740;-88.000;2022-09-09T00:39:21;6;6;
45990;PMS5003;31721;41.740;-88.000;2022-09-09T00:41:57;8;7;
45990;PMS5003;31721;41.740;-88.000;2022-09-09T00:44:37;4;4;
45990;PMS5003;31721;41.740;-88.000;2022-09-09T00:47:12;5;5;
45990;PMS5003;31721;41.740;-88.000;2022-09-09T00:49:56;5;5;
45990;PMS5003;31721;41.740;-88.000;2022-09-09T00:52:32;8;7;
45990;PMS5003;31721;41.740;-88.000;2022-09-09T00:55:09;6;6;
45990;PMS5003;31721;41.740;-88.000;2022-09-09T00:57:43;10;9;
45990;PMS5003;31721;41.740;-88.000;2022-09-09T01:00:29;5;5;
45990;PMS5003;31721;41.740;-88.000;2022-09-09T01:03:19;5;5;
45990;PMS5003;31721;41.740;-88.000;2022-09-09T01:05:56;9;7;
45990;PMS5003;31721;41.740;-88.000;2022-09-09T01:08:34;6;6;
45990;PMS5003;31721;41.740;-88.000;2022-09-09T01:11:11;6;6;
45990;PMS5003;31721;41.740;-88.000;2022-09-09T01:13:47;7;6;
45990;PMS5003;31721;41.740;-88.000;2022-09-09T01:16:20;8;8;
45990;PMS5003;31721;41.740;-88.000;2022-09-09T01:18:48;5;4;
45990;PMS5003;31721;41.740;-88.000;2022-09-09T01:21:20;8;7;
45990;PMS5003;31721;41.740;-88.000;2022-09-09T01:24:02;11;9;
45990;PMS5003;31721;41.740;-88.000;2022-09-09T01:26:42;9;9;
45990;PMS5003;31721;41.740;-88.000;2022-09-09T01:29:12;10;9;
45990;PMS5003;31721;41.740;-88.000;2022-09-09T01:31:42;9;9;
45990;PMS5003;31721;41.740;-88.000;2022-09-09T01:34:18;9;9;
45990;PMS5003;31721;41.740;-88.000;2022-09-09T01:36:49;11;11;
45990;PMS5003;31721;41.740;-88.000;2022-09-09T01:39:21;9;9;
45990;PMS5003;31721;41.740;-88.000;2022-09-09T01:41:49;10;9;
45990;PMS5003;31721;41.740;-88.000;2022-09-09T01:44:17;9;9;
45990;PMS5003;31721;41.740;-88.000;2022-09-09T01:46:46;9;8;
45990;PMS5003;31721;41.740;-88.000;2022-09-09T01:49:16;8;7;
45990;PMS5003;31721;41.740;-88.000;2022-09-09T01:51:44;4;4;
45990;PMS5003;31721;41.740;-88.000;2022-09-09T01:54:16;7;7;
45990;PMS5003;31721;41.740;-88.000;2022-09-09T01:56:48;10;10;
45990;PMS5003;31721;41.740;-88.000;2022-09-09T01:59:27;10;9;
45990;PMS5003;31721;41.740;-88.000;2022-09-09T02:02:07;9;7;
45990;PMS5003;31721;41.740;-88.000;2022-09-09T02:04:39;9;9;
45990;PMS5003;31721;41.740;-88.000;2022-09-09T02:07:12;10;10;
45990;PMS5003;31721;41.740;-88.000;2022-09-09T02:09:51;8;7;
45990;PMS5003;31721;41.740;-88.000;2022-09-09T02:12:28;9;9;
45990;PMS5003;31721;41.740;-88.000;2022-09-09T02:14:59;6;6;
45990;PMS5003;31721;41.740;-88.000;2022-09-09T02:17:33;7;6;
45990;PMS5003;31721;41.740;-88.000;2022-09-09T02:20:04;7;7;
45990;PMS5003;31721;41.740;-88.000;2022-09-09T02:22:34;7;7;
45990;PMS5003;31721;41.740;-88.000;2022-09-09T02:25:06;9;9;
45990;PMS5003;31721;41.740;-88.000;2022-09-09T02:27:38;6;6;
45990;PMS5003;31721;41.740;-88.000;2022-09-09T02:30:08;6;6;
45990;PMS5003;31721;41.740;-88.000;2022-09-09T02:32:36;8;8;
45990;PMS5003;31721;41.740;-88.000;2022-09-09T02:35:08;10;10;
45990;PMS5003;31721;41.740;-88.000;2022-09-09T02:37:39;10;8;
45990;PMS5003;31721;41.740;-88.000;2022-09-09T02:40:09;7;7;
45990;PMS5003;31721;41.740;-88.000;2022-09-09T02:42:38;8;6;
45990;PMS5003;31721;41.740;-88.000;2022-09-09T02:45:07;5;5;
45990;PMS5003;31721;41.740;-88.000;2022-09-09T02:47:37;9;9;
45990;PMS5003;31721;41.740;-88.000;2022-09-09T02:50:12;12;9;
45990;PMS5003;31721;41.740;-88.000;2022-09-09T02:52:45;6;6;
45990;PMS5003;31721;41.740;-88.000;2022-09-09T02:55:23;7;7;
45990;PMS5003;31721;41.740;-88.000;2022-09-09T02:58:00;8;7;
45990;PMS5003;31721;41.740;-88.000;2022-09-09T03:00:31;8;6;
45990;PMS5003;31721;41.740;-88.000;2022-09-09T03:03:00;7;7;
45990;PMS5003;31721;41.740;-88.000;2022-09-09T03:05:27;9;6;
45990;PMS5003;31721;41.740;-88.000;2022-09-09T03:07:55;7;6;
45990;PMS5003;31721;41.740;-88.000;2022-09-09T03:10:23;7;5;
45990;PMS5003;31721;41.740;-88.000;2022-09-09T03:12:51;6;6;
45990;PMS5003;31721;41.740;-88.000;2022-09-09T03:15:18;5;5;
45990;PMS5003;31721;41.740;-88.000;2022-09-09T03:17:46;10;8;
45990;PMS5003;31721;41.740;-88.000;2022-09-09T03:20:14;7;6;
45990;PMS5003;31721;41.740;-88.000;2022-09-09T03:22:42;5;5;
45990;PMS5003;31721;41.740;-88.000;2022-09-09T03:25:10;7;7;
45990;PMS5003;31721;41.740;-88.000;2022-09-09T03:27:38;5;5;
45990;PMS5003;31721;41.740;-88.000;2022-09-09T03:30:06;9;8;
45990;PMS5003;31721;41.740;-88.000;2022-09-09T03:32:34;11;9;
45990;PMS5003;31721;41.740;-88.000;2022-09-09T03:35:01;11;11;
45990;PMS5003;31721;41.740;-88.000;2022-09-09T03:37:29;6;5;
45990;PMS5003;31721;41.740;-88.000;2022-09-09T03:39:57;6;5;
45990;PMS5003;31721;41.740;-88.000;2022-09-09T03:42:25;5;5;
45990;PMS5003;31721;41.740;-88.000;2022-09-09T03:44:52;6;6;
45990;PMS5003;31721;41.740;-88.000;2022-09-09T03:47:20;7;7;
45990;PMS5003;31721;41.740;-88.000;2022-09-09T03:49:48;8;6;
45990;PMS5003;31721;41.740;-88.000;2022-09-09T03:52:16;5;5;
45990;PMS5003;31721;41.740;-88.000;2022-09-09T03:54:43;6;6;
45990;PMS5003;31721;41.740;-88.000;2022-09-09T03:57:11;5;4;
45990;PMS5003;31721;41.740;-88.000;2022-09-09T03:59:39;5;5;
45990;PMS5003;31721;41.740;-88.000;2022-09-09T04:02:07;5;5;
45990;PMS5003;31721;41.740;-88.000;2022-09-09T04:04:35;5;5;
45990;PMS5003;31721;41.740;-88.000;2022-09-09T04:07:02;3;3;
45990;PMS5003;31721;41.740;-88.000;2022-09-09T04:09:30;6;5;
45990;PMS5003;31721;41.740;-88.000;2022-09-09T04:11:58;5;4;
45990;PMS5003;31721;41.740;-88.000;2022-09-09T04:14:26;6;6;
45990;PMS5003;31721;41.740;-88.000;2022-09-09T04:16:54;4;4;
45990;PMS5003;31721;41.740;-88.000;2022-09-09T04:19:21;3;3;
45990;PMS5003;31721;41.740;-88.000;2022-09-09T04:21:49;3;3;
45990;PMS5003;31721;41.740;-88.000;2022-09-09T04:24:17;4;4;
45990;PMS5003;31721;41.740;-88.000;2022-09-09T04:26:45;6;6;
45990;PMS5003;31721;41.740;-88.000;2022-09-09T04:29:18;5;5;
45990;PMS5003;31721;41.740;-88.000;2022-09-09T04:31:46;5;5;
45990;PMS5003;31721;41.740;-88.000;2022-09-09T04:34:13;6;4;
45990;PMS5003;31721;41.740;-88.000;2022-09-09T04:36:41;6;5;
45990;PMS5003;31721;41.740;-88.000;2022-09-09T04:39:09;5;4;
45990;PMS5003;31721;41.740;-88.000;2022-09-09T04:41:36;6;5;
45990;PMS5003;31721;41.740;-88.000;2022-09-09T04:44:04;8;6;
45990;PMS5003;31721;41.740;-88.000;2022-09-09T04:46:32;6;6;
45990;PMS5003;31721;41.740;-88.000;2022-09-09T04:49:00;8;7;
45990;PMS5003;31721;41.740;-88.000;2022-09-09T04:51:28;6;5;
45990;PMS5003;31721;41.740;-88.000;2022-09-09T04:53:56;7;7;
45990;PMS5003;31721;41.740;-88.000;2022-09-09T04:56:23;7;7;
45990;PMS5003;31721;41.740;-88.000;2022-09-09T04:58:51;12;10;
45990;PMS5003;31721;41.740;-88.000;2022-09-09T05:01:20;11;11;
45990;PMS5003;31721;41.740;-88.000;2022-09-09T05:03:49;13;13;
45990;PMS5003;31721;41.740;-88.000;2022-09-09T05:06:18;12;11;
45990;PMS5003;31721;41.740;-88.000;2022-09-09T05:08:47;5;5;
45990;PMS5003;31721;41.740;-88.000;2022-09-09T05:11:16;5;5;
45990;PMS5003;31721;41.740;-88.000;2022-09-09T05:13:45;4;4;
45990;PMS5003;31721;41.740;-88.000;2022-09-09T05:16:14;17;16;
45990;PMS5003;31721;41.740;-88.000;2022-09-09T05:18:42;12;9;
45990;PMS5003;31721;41.740;-88.000;2022-09-09T05:21:11;39;38;
45990;PMS5003;31721;41.740;-88.000;2022-09-09T05:23:40;12;11;
45990;PMS5003;31721;41.740;-88.000;2022-09-09T05:26:09;22;20;
45990;PMS5003;31721;41.740;-88.000;2022-09-09T05:28:45;9;9;
45990;PMS5003;31721;41.740;-88.000;2022-09-09T05:31:14;62;62;
45990;PMS5003;31721;41.740;-88.000;2022-09-09T05:33:43;14;14;
45990;PMS5003;31721;41.740;-88.000;2022-09-09T05:36:13;10;9;
45990;PMS5003;31721;41.740;-88.000;2022-09-09T05:38:42;16;13;
45990;PMS5003;31721;41.740;-88.000;2022-09-09T05:41:10;8;8;
45990;PMS5003;31721;41.740;-88.000;2022-09-09T05:43:39;14;11;
45990;PMS5003;31721;41.740;-88.000;2022-09-09T05:46:07;13;12;
45990;PMS5003;31721;41.740;-88.000;2022-09-09T05:48:37;13;13;
45990;PMS5003;31721;41.740;-88.000;2022-09-09T05:51:06;20;19;
45990;PMS5003;31721;41.740;-88.000;2022-09-09T05:53:36;10;10;
45990;PMS5003;31721;41.740;-88.000;2022-09-09T05:56:04;11;11;
45990;PMS5003;31721;41.740;-88.000;2022-09-09T05:58:33;25;24;
45990;PMS5003;31721;41.740;-88.000;2022-09-09T06:01:02;16;16;
45990;PMS5003;31721;41.740;-88.000;2022-09-09T06:03:31;21;19;
45990;PMS5003;31721;41.740;-88.000;2022-09-09T06:06:00;16;16;
45990;PMS5003;31721;41.740;-88.000;2022-09-09T06:08:29;14;13;
45990;PMS5003;31721;41.740;-88.000;2022-09-09T06:11:00;21;21;
45990;PMS5003;31721;41.740;-88.000;2022-09-09T06:13:29;18;18;
45990;PMS5003;31721;41.740;-88.000;2022-09-09T06:15:57;13;12;
45990;PMS5003;31721;41.740;-88.000;2022-09-09T06:18:25;21;21;
45990;PMS5003;31721;41.740;-88.000;2022-09-09T06:20:54;22;22;
45990;PMS5003;31721;41.740;-88.000;2022-09-09T06:23:22;22;22;
45990;PMS5003;31721;41.740;-88.000;2022-09-09T06:25:50;16;16;
45990;PMS5003;31721;41.740;-88.000;2022-09-09T06:28:18;13;13;
45990;PMS5003;31721;41.740;-88.000;2022-09-09T06:30:46;16;16;
45990;PMS5003;31721;41.740;-88.000;2022-09-09T06:33:13;15;12;
45990;PMS5003;31721;41.740;-88.000;2022-09-09T06:35:41;27;25;
45990;PMS5003;31721;41.740;-88.000;2022-09-09T06:38:08;23;20;
45990;PMS5003;31721;41.740;-88.000;2022-09-09T06:40:36;12;12;
45990;PMS5003;31721;41.740;-88.000;2022-09-09T06:43:04;25;25;
45990;PMS5003;31721;41.740;-88.000;2022-09-09T06:45:31;12;12;
45990;PMS5003;31721;41.740;-88.000;2022-09-09T06:47:59;31;31;
45990;PMS5003;31721;41.740;-88.000;2022-09-09T06:50:27;22;22;
45990;PMS5003;31721;41.740;-88.000;2022-09-09T06:52:55;18;18;
45990;PMS5003;31721;41.740;-88.000;2022-09-09T06:55:23;23;23;
45990;PMS5003;31721;41.740;-88.000;2022-09-09T06:57:50;35;35;
45990;PMS5003;31721;41.740;-88.000;2022-09-09T07:00:17;20;20;
45990;PMS5003;31721;41.740;-88.000;2022-09-09T07:02:45;16;16;
45990;PMS5003;31721;41.740;-88.000;2022-09-09T07:05:13;17;15;
45990;PMS5003;31721;41.740;-88.000;2022-09-09T07:07:40;26;26;
45990;PMS5003;31721;41.740;-88.000;2022-09-09T07:10:08;25;24;
45990;PMS5003;31721;41.740;-88.000;2022-09-09T07:12:36;21;19;
45990;PMS5003;31721;41.740;-88.000;2022-09-09T07:15:04;26;24;
45990;PMS5003;31721;41.740;-88.000;2022-09-09T07:17:33;18;18;
45990;PMS5003;31721;41.740;-88.000;2022-09-09T07:20:00;21;20;
45990;PMS5003;31721;41.740;-88.000;2022-09-09T07:22:28;16;16;
45990;PMS5003;31721;41.740;-88.000;2022-09-09T07:24:56;17;17;
45990;PMS5003;31721;41.740;-88.000;2022-09-09T07:27:24;17;17;
45990;PMS5003;31721;41.740;-88.000;2022-09-09T07:29:51;27;25;
45990;PMS5003;31721;41.740;-88.000;2022-09-09T07:32:19;14;12;
45990;PMS5003;31721;41.740;-88.000;2022-09-09T07:34:47;27;25;
45990;PMS5003;31721;41.740;-88.000;2022-09-09T07:37:14;19;19;
45990;PMS5003;31721;41.740;-88.000;2022-09-09T07:39:42;21;20;
45990;PMS5003;31721;41.740;-88.000;2022-09-09T07:42:10;18;18;
45990;PMS5003;31721;41.740;-88.000;2022-09-09T07:44:37;59;59;
45990;PMS5003;31721;41.740;-88.000;2022-09-09T07:47:05;52;52;
45990;PMS5003;31721;41.740;-88.000;2022-09-09T07:49:32;76;76;
45990;PMS5003;31721;41.740;-88.000;2022-09-09T07:52:00;54;53;
45990;PMS5003;31721;41.740;-88.000;2022-09-09T07:54:28;37;37;
45990;PMS5003;31721;41.740;-88.000;2022-09-09T07:56:55;26;26;
45990;PMS5003;31721;41.740;-88.000;2022-09-09T07:59:22;6;6;
45990;PMS5003;31721;41.740;-88.000;2022-09-09T08:01:51;6;6;
45990;PMS5003;31721;41.740;-88.000;2022-09-09T08:04:20;4;4;
45990;PMS5003;31721;41.740;-88.000;2022-09-09T08:06:49;5;5;
45990;PMS5003;31721;41.740;-88.000;2022-09-09T08:09:18;6;4;
45990;PMS5003;31721;41.740;-88.000;2022-09-09T08:11:47;6;6;
45990;PMS5003;31721;41.740;-88.000;2022-09-09T08:14:15;5;5;
45990;PMS5003;31721;41.740;-88.000;2022-09-09T08:16:44;5;5;
45990;PMS5003;31721;41.740;-88.000;2022-09-09T08:19:12;7;5;
45990;PMS5003;31721;41.740;-88.000;2022-09-09T08:21:40;5;4;
45990;PMS5003;31721;41.740;-88.000;2022-09-09T08:24:09;7;6;
45990;PMS5003;31721;41.740;-88.000;2022-09-09T08:26:38;5;5;
45990;PMS5003;31721;41.740;-88.000;2022-09-09T08:29:08;4;4;
45990;PMS5003;31721;41.740;-88.000;2022-09-09T08:31:38;5;5;
45990;PMS5003;31721;41.740;-88.000;2022-09-09T08:34:07;6;4;
45990;PMS5003;31721;41.740;-88.000;2022-09-09T08:36:36;4;4;
45990;PMS5003;31721;41.740;-88.000;2022-09-09T08:39:05;3;3;
45990;PMS5003;31721;41.740;-88.000;2022-09-09T08:42:39;6;6;
45990;PMS5003;31721;41.740;-88.000;2022-09-09T08:45:33;6;6;
45990;PMS5003;31721;41.740;-88.000;2022-09-09T08:48:15;7;3;
45990;PMS5003;31721;41.740;-88.000;2022-09-09T08:50:57;6;6;
45990;PMS5003;31721;41.740;-88.000;2022-09-09T08:53:26;4;4;
45990;PMS5003;31721;41.740;-88.000;2022-09-09T08:55:55;6;5;
45990;PMS5003;31721;41.740;-88.000;2022-09-09T08:58:25;6;6;
45990;PMS5003;31721;41.740;-88.000;2022-09-09T09:00:59;6;5;
45990;PMS5003;31721;41.740;-88.000;2022-09-09T09:03:47;4;4;
45990;PMS5003;31721;41.740;-88.000;2022-09-09T09:06:24;5;5;
45990;PMS5003;31721;41.740;-88.000;2022-09-09T09:09:05;5;5;
45990;PMS5003;31721;41.740;-88.000;2022-09-09T09:11:43;5;5;
45990;PMS5003;31721;41.740;-88.000;2022-09-09T09:14:15;5;5;
45990;PMS5003;31721;41.740;-88.000;2022-09-09T09:16:48;5;5;
45990;PMS5003;31721;41.740;-88.000;2022-09-09T09:19:20;6;6;
45990;PMS5003;31721;41.740;-88.000;2022-09-09T09:21:48;5;5;
45990;PMS5003;31721;41.740;-88.000;2022-09-09T09:24:22;4;4;
45990;PMS5003;31721;41.740;-88.000;2022-09-09T09:26:53;5;5;
45990;PMS5003;31721;41.740;-88.000;2022-09-09T09:29:23;6;5;
45990;PMS5003;31721;41.740;-88.000;2022-09-09T09:31:53;5;5;
45990;PMS5003;31721;41.740;-88.000;2022-09-09T09:34:23;6;5;
45990;PMS5003;31721;41.740;-88.000;2022-09-09T09:36:53;5;5;
45990;PMS5003;31721;41.740;-88.000;2022-09-09T09:39:24;9;7;
45990;PMS5003;31721;41.740;-88.000;2022-09-09T09:41:53;5;5;
45990;PMS5003;31721;41.740;-88.000;2022-09-09T09:44:22;6;6;
45990;PMS5003;31721;41.740;-88.000;2022-09-09T09:46:52;6;6;
45990;PMS5003;31721;41.740;-88.000;2022-09-09T09:49:20;4;4;
45990;PMS5003;31721;41.740;-88.000;2022-09-09T09:51:48;7;7;
45990;PMS5003;31721;41.740;-88.000;2022-09-09T09:54:18;10;7;
45990;PMS5003;31721;41.740;-88.000;2022-09-09T09:56:53;5;4;
45990;PMS5003;31721;41.740;-88.000;2022-09-09T09:59:23;6;6;
45990;PMS5003;31721;41.740;-88.000;2022-09-09T10:02:06;5;5;
45990;PMS5003;31721;41.740;-88.000;2022-09-09T10:04:42;5;5;
45990;PMS5003;31721;41.740;-88.000;2022-09-09T10:07:12;5;5;
45990;PMS5003;31721;41.740;-88.000;2022-09-09T10:09:43;4;4;
45990;PMS5003;31721;41.740;-88.000;2022-09-09T10:12:14;7;7;
45990;PMS5003;31721;41.740;-88.000;2022-09-09T10:14:51;5;5;
45990;PMS5003;31721;41.740;-88.000;2022-09-09T10:17:29;5;5;
45990;PMS5003;31721;41.740;-88.000;2022-09-09T10:20:12;4;4;
45990;PMS5003;31721;41.740;-88.000;2022-09-09T10:22:51;10;8;
45990;PMS5003;31721;41.740;-88.000;2022-09-09T10:25:30;8;7;
45990;PMS5003;31721;41.740;-88.000;2022-09-09T10:28:14;6;6;
45990;PMS5003;31721;41.740;-88.000;2022-09-09T10:30:58;6;6;
45990;PMS5003;31721;41.740;-88.000;2022-09-09T10:33:37;6;5;
45990;PMS5003;31721;41.740;-88.000;2022-09-09T10:36:16;4;4;
45990;PMS5003;31721;41.740;-88.000;2022-09-09T10:38:47;9;6;
45990;PMS5003;31721;41.740;-88.000;2022-09-09T10:41:19;4;4;
45990;PMS5003;31721;41.740;-88.000;2022-09-09T10:44:22;7;7;
45990;PMS5003;31721;41.740;-88.000;2022-09-09T10:47:07;7;6;
45990;PMS5003;31721;41.740;-88.000;2022-09-09T10:50:18;6;5;
45990;PMS5003;31721;41.740;-88.000;2022-09-09T10:52:58;8;7;
45990;PMS5003;31721;41.740;-88.000;2022-09-09T10:55:37;5;4;
45990;PMS5003;31721;41.740;-88.000;2022-09-09T10:58:10;8;8;
45990;PMS5003;31721;41.740;-88.000;2022-09-09T11:00:45;6;5;
45990;PMS5003;31721;41.740;-88.000;2022-09-09T11:03:18;6;6;
45990;PMS5003;31721;41.740;-88.000;2022-09-09T11:05:49;4;4;
45990;PMS5003;31721;41.740;-88.000;2022-09-09T11:08:22;7;7;
45990;PMS5003;31721;41.740;-88.000;2022-09-09T11:10:53;10;9;
45990;PMS5003;31721;41.740;-88.000;2022-09-09T11:13:29;8;8;
45990;PMS5003;31721;41.740;-88.000;2022-09-09T11:16:04;7;7;
45990;PMS5003;31721;41.740;-88.000;2022-09-09T11:18:44;4;4;
45990;PMS5003;31721;41.740;-88.000;2022-09-09T11:21:21;6;6;
45990;PMS5003;31721;41.740;-88.000;2022-09-09T11:23:55;5;5;
45990;PMS5003;31721;41.740;-88.000;2022-09-09T11:26:29;6;6;
45990;PMS5003;31721;41.740;-88.000;2022-09-09T11:29:05;7;5;
45990;PMS5003;31721;41.740;-88.000;2022-09-09T11:31:51;7;5;
45990;PMS5003;31721;41.740;-88.000;2022-09-09T11:34:31;6;6;
45990;PMS5003;31721;41.740;-88.000;2022-09-09T11:37:11;7;6;
45990;PMS5003;31721;41.740;-88.000;2022-09-09T11:39:51;6;6;
45990;PMS5003;31721;41.740;-88.000;2022-09-09T11:42:35;6;6;
45990;PMS5003;31721;41.740;-88.000;2022-09-09T11:45:18;10;8;
45990;PMS5003;31721;41.740;-88.000;2022-09-09T11:47:52;6;6;
45990;PMS5003;31721;41.740;-88.000;2022-09-09T11:50:30;8;8;
45990;PMS5003;31721;41.740;-88.000;2022-09-09T11:53:18;6;6;
45990;PMS5003;31721;41.740;-88.000;2022-09-09T11:55:47;8;8;
45990;PMS5003;31721;41.740;-88.000;2022-09-09T11:58:26;6;5;
45990;PMS5003;31721;41.740;-88.000;2022-09-09T12:00:56;7;7;
45990;PMS5003;31721;41.740;-88.000;2022-09-09T12:03:33;9;9;
45990;PMS5003;31721;41.740;-88.000;2022-09-09T12:06:11;4;4;
45990;PMS5003;31721;41.740;-88.000;2022-09-09T12:08:45;5;5;
45990;PMS5003;31721;41.740;-88.000;2022-09-09T12:11:23;4;4;
45990;PMS5003;31721;41.740;-88.000;2022-09-09T12:13:53;7;6;
45990;PMS5003;31721;41.740;-88.000;2022-09-09T12:16:30;4;4;
45990;PMS5003;31721;41.740;-88.000;2022-09-09T12:19:03;9;6;
45990;PMS5003;31721;41.740;-88.000;2022-09-09T12:21:34;10;8;
45990;PMS5003;31721;41.740;-88.000;2022-09-09T12:24:08;6;5;
45990;PMS5003;31721;41.740;-88.000;2022-09-09T12:26:38;8;7;
45990;PMS5003;31721;41.740;-88.000;2022-09-09T12:29:12;7;5;
45990;PMS5003;31721;41.740;-88.000;2022-09-09T12:31:53;7;7;
45990;PMS5003;31721;41.740;-88.000;2022-09-09T12:34:30;5;5;
45990;PMS5003;31721;41.740;-88.000;2022-09-09T12:37:03;7;7;
45990;PMS5003;31721;41.740;-88.000;2022-09-09T12:39:38;6;6;
45990;PMS5003;31721;41.740;-88.000;2022-09-09T12:42:16;6;6;
45990;PMS5003;31721;41.740;-88.000;2022-09-09T12:44:53;6;6;
45990;PMS5003;31721;41.740;-88.000;2022-09-09T12:47:23;8;8;
45990;PMS5003;31721;41.740;-88.000;2022-09-09T12:49:56;6;5;
45990;PMS5003;31721;41.740;-88.000;2022-09-09T12:52:26;5;5;
45990;PMS5003;31721;41.740;-88.000;2022-09-09T12:54:59;6;6;
45990;PMS5003;31721;41.740;-88.000;2022-09-09T12:57:31;8;8;
45990;PMS5003;31721;41.740;-88.000;2022-09-09T13:00:04;4;4;
45990;PMS5003;31721;41.740;-88.000;2022-09-09T13:02:45;7;7;
45990;PMS5003;31721;41.740;-88.000;2022-09-09T13:05:15;5;5;
45990;PMS5003;31721;41.740;-88.000;2022-09-09T13:07:46;7;6;
45990;PMS5003;31721;41.740;-88.000;2022-09-09T13:10:21;34;33;
45990;PMS5003;31721;41.740;-88.000;2022-09-09T13:12:53;31;31;
45990;PMS5003;31721;41.740;-88.000;2022-09-09T13:15:22;7;7;
45990;PMS5003;31721;41.740;-88.000;2022-09-09T13:17:53;6;6;
45990;PMS5003;31721;41.740;-88.000;2022-09-09T13:20:22;8;8;
45990;PMS5003;31721;41.740;-88.000;2022-09-09T13:22:51;6;5;
45990;PMS5003;31721;41.740;-88.000;2022-09-09T13:25:22;6;6;
45990;PMS5003;31721;41.740;-88.000;2022-09-09T13:27:53;9;7;
45990;PMS5003;31721;41.740;-88.000;2022-09-09T13:30:24;9;7;
45990;PMS5003;31721;41.740;-88.000;2022-09-09T13:33:03;5;5;
45990;PMS5003;31721;41.740;-88.000;2022-09-09T13:35:33;6;6;
45990;PMS5003;31721;41.740;-88.000;2022-09-09T13:38:07;7;6;
45990;PMS5003;31721;41.740;-88.000;2022-09-09T13:40:35;7;6;
45990;PMS5003;31721;41.740;-88.000;2022-09-09T13:43:04;6;5;
45990;PMS5003;31721;41.740;-88.000;2022-09-09T13:45:40;7;6;
45990;PMS5003;31721;41.740;-88.000;2022-09-09T13:48:10;4;4;
45990;PMS5003;31721;41.740;-88.000;2022-09-09T13:50:38;6;6;
45990;PMS5003;31721;41.740;-88.000;2022-09-09T13:53:06;4;4;
45990;PMS5003;31721;41.740;-88.000;2022-09-09T13:55:34;6;5;
45990;PMS5003;31721;41.740;-88.000;2022-09-09T13:58:04;4;4;
45990;PMS5003;31721;41.740;-88.000;2022-09-09T14:00:32;3;3;
45990;PMS5003;31721;41.740;-88.000;2022-09-09T14:03:01;7;7;
45990;PMS5003;31721;41.740;-88.000;2022-09-09T14:05:30;6;5;
45990;PMS5003;31721;41.740;-88.000;2022-09-09T14:07:59;6;6;
45990;PMS5003;31721;41.740;-88.000;2022-09-09T14:10:30;6;6;
45990;PMS5003;31721;41.740;-88.000;2022-09-09T14:12:57;6;6;
45990;PMS5003;31721;41.740;-88.000;2022-09-09T14:15:25;5;5;
45990;PMS5003;31721;41.740;-88.000;2022-09-09T14:17:52;11;7;
45990;PMS5003;31721;41.740;-88.000;2022-09-09T14:20:20;8;8;
45990;PMS5003;31721;41.740;-88.000;2022-09-09T14:22:48;9;8;
45990;PMS5003;31721;41.740;-88.000;2022-09-09T14:25:16;7;7;
45990;PMS5003;31721;41.740;-88.000;2022-09-09T14:27:43;7;7;
45990;PMS5003;31721;41.740;-88.000;2022-09-09T14:30:11;6;6;
45990;PMS5003;31721;41.740;-88.000;2022-09-09T14:32:39;7;6;
45990;PMS5003;31721;41.740;-88.000;2022-09-09T14:35:07;6;6;
45990;PMS5003;31721;41.740;-88.000;2022-09-09T14:37:35;7;7;
45990;PMS5003;31721;41.740;-88.000;2022-09-09T14:40:03;7;7;
45990;PMS5003;31721;41.740;-88.000;2022-09-09T14:42:31;6;6;
45990;PMS5003;31721;41.740;-88.000;2022-09-09T14:44:58;7;5;
45990;PMS5003;31721;41.740;-88.000;2022-09-09T14:47:26;8;8;
45990;PMS5003;31721;41.740;-88.000;2022-09-09T14:49:54;9;8;
45990;PMS5003;31721;41.740;-88.000;2022-09-09T14:52:22;8;6;
45990;PMS5003;31721;41.740;-88.000;2022-09-09T14:54:49;5;5;
45990;PMS5003;31721;41.740;-88.000;2022-09-09T14:57:17;6;6;
45990;PMS5003;31721;41.740;-88.000;2022-09-09T14:59:44;10;8;
45990;PMS5003;31721;41.740;-88.000;2022-09-09T15:02:12;7;7;
45990;PMS5003;31721;41.740;-88.000;2022-09-09T15:04:40;7;7;
45990;PMS5003;31721;41.740;-88.000;2022-09-09T15:07:07;9;7;
45990;PMS5003;31721;41.740;-88.000;2022-09-09T15:09:35;7;7;
45990;PMS5003;31721;41.740;-88.000;2022-09-09T15:12:03;7;7;
45990;PMS5003;31721;41.740;-88.000;2022-09-09T15:14:30;7;5;
45990;PMS5003;31721;41.740;-88.000;2022-09-09T15:16:58;8;7;
45990;PMS5003;31721;41.740;-88.000;2022-09-09T15:19:25;7;7;
45990;PMS5003;31721;41.740;-88.000;2022-09-09T15:21:53;9;7;
45990;PMS5003;31721;41.740;-88.000;2022-09-09T15:24:21;4;4;
45990;PMS5003;31721;41.740;-88.000;2022-09-09T15:26:48;5;4;
45990;PMS5003;31721;41.740;-88.000;2022-09-09T15:29:16;8;6;
45990;PMS5003;31721;41.740;-88.000;2022-09-09T15:31:44;10;9;
45990;PMS5003;31721;41.740;-88.000;2022-09-09T15:34:12;7;7;
45990;PMS5003;31721;41.740;-88.000;2022-09-09T15:36:40;5;5;
45990;PMS5003;31721;41.740;-88.000;2022-09-09T15:39:09;7;7;
45990;PMS5003;31721;41.740;-88.000;2022-09-09T15:41:39;6;6;
45990;PMS5003;31721;41.740;-88.000;2022-09-09T15:44:07;7;7;
45990;PMS5003;31721;41.740;-88.000;2022-09-09T15:46:35;6;6;
45990;PMS5003;31721;41.740;-88.000;2022-09-09T15:49:05;9;9;
45990;PMS5003;31721;41.740;-88.000;2022-09-09T15:51:34;6;6;
45990;PMS5003;31721;41.740;-88.000;2022-09-09T15:54:03;4;4;
45990;PMS5003;31721;41.740;-88.000;2022-09-09T15:56:31;5;5;
45990;PMS5003;31721;41.740;-88.000;2022-09-09T15:58:59;6;6;
45990;PMS5003;31721;41.740;-88.000;2022-09-09T16:01:28;5;5;
45990;PMS5003;31721;41.740;-88.000;2022-09-09T16:03:56;9;9;
45990;PMS5003;31721;41.740;-88.000;2022-09-09T16:06:24;12;12;
45990;PMS5003;31721;41.740;-88.000;2022-09-09T16:08:52;34;33;
45990;PMS5003;31721;41.740;-88.000;2022-09-09T16:11:22;31;31;
45990;PMS5003;31721;41.740;-88.000;2022-09-09T16:13:53;41;40;
45990;PMS5003;31721;41.740;-88.000;2022-09-09T16:16:22;18;17;
45990;PMS5003;31721;41.740;-88.000;2022-09-09T16:18:51;20;20;
45990;PMS5003;31721;41.740;-88.000;2022-09-09T16:21:21;19;18;
45990;PMS5003;31721;41.740;-88.000;2022-09-09T16:23:50;9;9;
45990;PMS5003;31721;41.740;-88.000;2022-09-09T16:26:19;8;8;
45990;PMS5003;31721;41.740;-88.000;2022-09-09T16:28:47;12;11;
45990;PMS5003;31721;41.740;-88.000;2022-09-09T16:31:15;17;17;
45990;PMS5003;31721;41.740;-88.000;2022-09-09T16:33:45;14;14;
45990;PMS5003;31721;41.740;-88.000;2022-09-09T16:36:15;7;7;